createdAt,value
2023-04-05T00:01:34.252Z,-1.80
2023-04-05T00:04:02.581Z,-1.50
2023-04-05T00:06:30.147Z,-1.90
2023-04-05T00:08:57.771Z,-1.80
2023-04-05T00:11:29.910Z,-2.20
2023-04-05T00:13:56.757Z,-2.00
2023-04-05T00:16:23.441Z,-2.00
2023-04-05T00:18:51.580Z,-2.10
2023-04-05T00:21:22.195Z,-2.00
2023-04-05T00:23:51.446Z,-2.20
2023-04-05T00:26:18.782Z,-2.10
2023-04-05T00:28:45.499Z,-2.10
2023-04-05T00:31:12.182Z,-2.10
2023-04-05T00:33:38.748Z,-2.20
2023-04-05T00:36:15.823Z,-2.40
2023-04-05T00:38:43.342Z,-2.10
2023-04-05T00:41:10.868Z,-2.20
2023-04-05T00:43:37.753Z,-2.30
2023-04-05T00:46:05.103Z,-2.30
2023-04-05T00:48:32.337Z,-2.30
2023-04-05T00:50:59.326Z,-2.40
2023-04-05T00:53:27.387Z,-2.30
2023-04-05T00:55:54.322Z,-2.40
2023-04-05T00:58:24.589Z,-2.30
2023-04-05T01:01:01.647Z,-2.40
2023-04-05T01:03:31.238Z,-2.50
2023-04-05T01:06:16.779Z,-2.80
2023-04-05T01:09:00.274Z,-2.10
2023-04-05T01:11:27.085Z,-2.50
2023-04-05T01:14:00.335Z,-2.20
2023-04-05T01:16:27.261Z,-2.50
2023-04-05T01:18:56.684Z,-2.50
2023-04-05T01:21:37.898Z,-2.60
2023-04-05T01:24:16.693Z,-2.50
2023-04-05T01:27:02.175Z,-2.50
2023-04-05T01:29:28.706Z,-2.50
2023-04-05T01:31:58.218Z,-2.60
2023-04-05T01:34:27.824Z,-2.70
2023-04-05T01:36:55.958Z,-2.70
2023-04-05T01:39:23.164Z,-2.80
2023-04-05T01:41:50.118Z,-2.80
2023-04-05T01:44:16.681Z,-3.00
2023-04-05T01:46:43.339Z,-3.00
2023-04-05T01:49:09.917Z,-2.80
2023-04-05T01:51:36.538Z,-3.10
2023-04-05T01:54:03.102Z,-2.80
2023-04-05T01:58:56.670Z,-2.90
2023-04-05T02:01:23.369Z,-3.20
2023-04-05T02:03:50.050Z,-3.30
2023-04-05T02:06:16.665Z,-3.20
2023-04-05T02:08:43.234Z,-3.20
2023-04-05T02:14:31.938Z,-3.20
2023-04-05T02:16:58.543Z,-3.20
2023-04-05T02:19:26.023Z,-3.30
2023-04-05T02:21:53.835Z,-3.20
2023-04-05T02:24:20.511Z,-3.20
2023-04-05T02:26:47.301Z,-3.10
2023-04-05T02:29:13.903Z,-3.30
2023-04-05T02:31:40.512Z,-3.30
2023-04-05T02:34:09.253Z,-3.30
2023-04-05T02:46:26.674Z,-3.30
2023-04-05T02:48:53.307Z,-3.30
2023-04-05T02:51:19.860Z,-3.40
2023-04-05T02:53:46.441Z,-3.40
2023-04-05T02:56:13.716Z,-3.50
2023-04-05T02:58:41.060Z,-3.40
2023-04-05T03:01:08.812Z,-3.60
2023-04-05T03:03:35.867Z,-3.50
2023-04-05T03:06:13.404Z,-3.50
2023-04-05T03:08:44.035Z,-3.50
2023-04-05T03:11:11.310Z,-3.60
2023-04-05T03:13:38.122Z,-3.60
2023-04-05T03:16:04.998Z,-3.50
2023-04-05T03:18:31.782Z,-3.50
2023-04-05T03:20:58.817Z,-3.60
2023-04-05T03:23:29.866Z,-3.60
2023-04-05T03:25:59.528Z,-3.50
2023-04-05T03:28:26.199Z,-3.50
2023-04-05T03:30:52.834Z,-3.60
2023-04-05T03:33:19.751Z,-3.70
2023-04-05T03:35:46.733Z,-3.70
2023-04-05T03:38:13.487Z,-3.90
2023-04-05T03:40:40.213Z,-3.70
2023-04-05T03:43:06.812Z,-3.70
2023-04-05T03:45:33.853Z,-3.90
2023-04-05T03:48:00.938Z,-3.90
2023-04-05T03:50:27.652Z,-3.80
2023-04-05T03:52:54.279Z,-3.70
2023-04-05T03:55:20.896Z,-3.70
2023-04-05T03:57:47.859Z,-3.70
2023-04-05T04:00:14.814Z,-3.90
2023-04-05T04:02:45.420Z,-4.00
2023-04-05T04:05:16.260Z,-3.90
2023-04-05T04:07:43.478Z,-4.00
2023-04-05T04:10:10.966Z,-3.90
2023-04-05T04:12:37.938Z,-3.90
2023-04-05T04:15:04.723Z,-4.10
2023-04-05T04:17:32.392Z,-3.90
2023-04-05T04:19:59.504Z,-4.00
2023-04-05T04:22:26.835Z,-4.30
2023-04-05T04:24:53.613Z,-4.10
2023-04-05T04:27:20.905Z,-4.20
2023-04-05T04:29:47.935Z,-4.00
2023-04-05T04:32:15.397Z,-3.90
2023-04-05T04:34:44.854Z,-4.10
2023-04-05T04:37:18.540Z,-4.10
2023-04-05T04:39:46.353Z,-4.00
2023-04-05T04:42:13.165Z,-4.80
2023-04-05T04:44:42.600Z,-4.10
2023-04-05T04:47:14.423Z,-3.10
2023-04-05T04:49:41.668Z,-4.10
2023-04-05T04:52:08.275Z,-4.10
2023-04-05T04:54:35.790Z,-4.00
2023-04-05T04:57:02.888Z,-4.10
2023-04-05T04:59:29.687Z,-4.10
2023-04-05T05:01:56.324Z,-4.10
2023-04-05T05:04:23.048Z,-4.10
2023-04-05T05:06:53.648Z,-4.10
2023-04-05T05:09:20.725Z,-4.00
2023-04-05T05:11:47.339Z,-4.20
2023-04-05T05:14:13.958Z,-4.10
2023-04-05T05:16:40.582Z,-4.20
2023-04-05T05:19:07.179Z,-4.10
2023-04-05T05:21:33.817Z,-4.30
2023-04-05T05:24:00.404Z,-4.20
2023-04-05T05:26:27.207Z,-4.00
2023-04-05T05:28:54.161Z,-3.90
2023-04-05T05:31:20.787Z,-3.90
2023-04-05T05:33:50.029Z,-3.90
2023-04-05T05:36:16.784Z,-4.20
2023-04-05T05:38:43.618Z,-3.80
2023-04-05T05:41:10.311Z,-3.70
2023-04-05T05:43:36.959Z,-3.60
2023-04-05T05:46:03.737Z,-3.50
2023-04-05T05:48:30.957Z,-3.60
2023-04-05T05:51:01.644Z,-3.50
2023-04-05T05:53:28.487Z,-3.40
2023-04-05T05:55:56.110Z,-3.20
2023-04-05T05:58:22.758Z,-3.40
2023-04-05T06:00:51.620Z,-3.30
2023-04-05T06:03:19.265Z,-3.00
2023-04-05T06:05:56.177Z,-3.10
2023-04-05T06:08:27.701Z,-2.90
2023-04-05T06:10:54.281Z,-3.10
2023-04-05T06:13:20.929Z,-3.10
2023-04-05T06:15:47.738Z,-3.10
2023-04-05T06:18:14.572Z,-2.80
2023-04-05T06:20:43.131Z,-3.10
2023-04-05T06:23:13.147Z,-3.00
2023-04-05T06:25:40.112Z,-2.80
2023-04-05T06:28:07.158Z,-2.90
2023-04-05T06:30:33.932Z,-2.70
2023-04-05T06:33:00.841Z,-2.60
2023-04-05T06:35:27.492Z,-2.50
2023-04-05T06:37:54.080Z,-2.10
2023-04-05T06:40:20.761Z,-2.00
2023-04-05T06:42:47.349Z,-2.00
2023-04-05T06:50:09.188Z,-1.80
2023-04-05T06:52:35.856Z,-1.40
2023-04-05T06:57:29.911Z,-1.40
2023-04-05T06:59:56.507Z,-0.70
2023-04-05T07:02:23.141Z,-0.40
2023-04-05T07:04:49.802Z,0.00
2023-04-05T07:07:17.045Z,0.10
2023-04-05T07:12:10.657Z,-0.10
2023-04-05T07:14:37.671Z,0.50
2023-04-05T07:17:06.104Z,0.60
2023-04-05T07:19:33.006Z,0.80
2023-04-05T07:21:59.676Z,0.60
2023-04-05T07:24:26.259Z,0.80
2023-04-05T07:26:52.834Z,1.10
2023-04-05T07:29:19.426Z,1.40
2023-04-05T07:31:46.043Z,1.70
2023-04-05T07:34:13.034Z,1.50
2023-04-05T07:36:39.690Z,1.90
2023-04-05T07:39:06.380Z,2.10
2023-04-05T07:41:35.288Z,2.40
2023-04-05T07:44:01.918Z,2.70
2023-04-05T07:46:29.939Z,2.70
2023-04-05T07:48:56.671Z,2.90
2023-04-05T07:51:23.249Z,3.00
2023-04-05T07:53:49.904Z,3.10
2023-04-05T07:56:16.740Z,3.20
2023-04-05T07:58:45.493Z,4.20
2023-04-05T08:01:12.174Z,3.50
2023-04-05T08:03:39.930Z,3.70
2023-04-05T08:06:11.506Z,3.90
2023-04-05T08:08:39.454Z,4.00
2023-04-05T08:11:06.339Z,4.30
2023-04-05T08:13:34.014Z,4.30
2023-04-05T08:16:02.280Z,4.30
2023-04-05T08:18:29.942Z,5.40
2023-04-05T08:20:56.826Z,4.30
2023-04-05T08:23:23.582Z,4.10
2023-04-05T08:25:50.315Z,4.00
2023-04-05T08:28:17.222Z,5.00
2023-04-05T08:30:44.029Z,4.70
2023-04-05T08:33:16.199Z,5.00
2023-04-05T08:35:43.196Z,4.50
2023-04-05T08:38:12.149Z,6.10
2023-04-05T08:40:44.856Z,4.90
2023-04-05T08:43:34.684Z,4.70
2023-04-05T08:46:02.055Z,5.30
2023-04-05T08:48:37.014Z,5.60
2023-04-05T08:51:06.116Z,6.10
2023-04-05T08:53:36.447Z,5.70
2023-04-05T08:56:04.502Z,6.10
2023-04-05T09:01:51.836Z,5.40
2023-04-05T09:04:22.270Z,5.20
2023-04-05T09:06:50.786Z,5.50
2023-04-05T09:09:27.248Z,6.20
2023-04-05T09:12:09.079Z,6.40
2023-04-05T09:14:36.716Z,6.80
2023-04-05T09:17:04.213Z,7.70
2023-04-05T09:19:31.113Z,6.70
2023-04-05T09:22:07.870Z,6.90
2023-04-05T09:24:36.946Z,6.40
2023-04-05T09:27:05.316Z,6.30
2023-04-05T09:29:32.064Z,7.60
2023-04-05T09:32:00.463Z,7.50
2023-04-05T09:34:27.071Z,6.20
2023-04-05T09:36:53.816Z,6.90
2023-04-05T09:39:27.711Z,7.00
2023-04-05T09:42:06.880Z,7.40
2023-04-05T09:44:53.441Z,7.20
2023-04-05T09:47:21.456Z,7.00
2023-04-05T09:49:48.311Z,7.70
2023-04-05T09:52:21.800Z,7.80
2023-04-05T09:54:49.526Z,7.30
2023-04-05T09:57:17.050Z,7.70
2023-04-05T09:59:44.216Z,7.20
2023-04-05T10:02:11.763Z,7.00
2023-04-05T10:04:39.724Z,7.40
2023-04-05T10:07:06.887Z,8.00
2023-04-05T10:09:35.083Z,7.90
2023-04-05T10:12:02.565Z,8.00
2023-04-05T10:14:29.278Z,7.70
2023-04-05T10:17:03.003Z,8.60
2023-04-05T10:19:36.481Z,8.60
2023-04-05T10:22:05.438Z,8.90
2023-04-05T10:25:05.699Z,8.80
2023-04-05T10:28:09.500Z,9.40
2023-04-05T10:30:38.896Z,10.00
2023-04-05T10:37:09.739Z,9.70
2023-04-05T10:39:46.003Z,9.40
2023-04-05T10:42:27.040Z,10.20
2023-04-05T10:45:00.193Z,10.70
2023-04-05T10:47:28.710Z,11.30
2023-04-05T10:49:57.440Z,11.00
2023-04-05T10:52:24.302Z,10.70
2023-04-05T10:54:57.980Z,11.80
2023-04-05T10:57:25.615Z,11.60
2023-04-05T10:59:53.392Z,11.90
2023-04-05T11:02:20.409Z,12.20
2023-04-05T11:04:55.241Z,12.70
2023-04-05T11:07:21.982Z,11.50
2023-04-05T11:09:57.969Z,10.00
2023-04-05T11:12:57.312Z,10.30
2023-04-05T11:15:33.294Z,11.40
2023-04-05T11:18:07.727Z,10.20
2023-04-05T11:20:45.016Z,11.00
2023-04-05T11:23:12.564Z,11.60
2023-04-05T11:25:40.430Z,12.90
2023-04-05T11:28:08.652Z,12.00
2023-04-05T11:30:48.792Z,11.50
2023-04-05T11:33:34.354Z,11.50
2023-04-05T11:36:01.781Z,12.00
2023-04-05T11:38:28.636Z,11.50
2023-04-05T11:41:12.472Z,11.50
2023-04-05T11:43:39.170Z,11.40
2023-04-05T11:46:06.041Z,13.70
2023-04-05T11:48:32.808Z,13.10
2023-04-05T11:51:00.136Z,13.20
2023-04-05T11:53:26.873Z,12.30
2023-04-05T11:55:55.355Z,12.70
2023-04-05T11:58:22.814Z,12.30
2023-04-05T12:00:59.891Z,13.00
2023-04-05T12:03:29.080Z,13.00
2023-04-05T12:05:56.732Z,13.20
2023-04-05T12:08:23.748Z,12.50
2023-04-05T12:13:24.930Z,16.20
2023-04-05T12:15:51.589Z,16.60
2023-04-05T12:18:18.272Z,16.60
2023-04-05T12:20:45.655Z,16.50
2023-04-05T12:23:12.531Z,15.20
2023-04-05T12:25:39.375Z,17.80
2023-04-05T12:28:07.098Z,17.10
2023-04-05T12:30:36.702Z,15.70
2023-04-05T12:33:09.799Z,16.90
2023-04-05T12:35:36.964Z,17.70
2023-04-05T12:38:05.897Z,18.40
2023-04-05T12:40:34.332Z,18.50
2023-04-05T12:43:02.261Z,18.80
2023-04-05T12:45:29.209Z,18.00
2023-04-05T12:48:00.038Z,17.80
2023-04-05T12:50:28.323Z,16.90
2023-04-05T12:53:15.382Z,17.70
2023-04-05T12:55:48.748Z,17.20
2023-04-05T12:58:17.525Z,16.10
2023-04-05T13:00:44.196Z,16.70
2023-04-05T13:03:18.337Z,17.90
2023-04-05T13:05:45.138Z,17.90
2023-04-05T13:08:11.792Z,18.00
2023-04-05T13:10:38.400Z,17.70
2023-04-05T13:13:09.363Z,17.80
2023-04-05T13:15:40.766Z,17.50
2023-04-05T13:18:13.653Z,18.20
2023-04-05T13:20:41.999Z,17.30
2023-04-05T13:23:12.706Z,18.00
2023-04-05T13:25:40.486Z,16.40
2023-04-05T13:28:07.348Z,16.80
2023-04-05T13:30:34.050Z,15.60
2023-04-05T13:33:00.774Z,17.20
2023-04-05T13:35:27.610Z,16.40
2023-04-05T13:37:54.309Z,16.90
2023-04-05T13:40:21.194Z,16.90
2023-04-05T13:42:49.070Z,16.70
2023-04-05T13:45:15.810Z,18.00
2023-04-05T13:47:42.569Z,18.80
2023-04-05T13:50:09.441Z,17.80
2023-04-05T13:52:36.414Z,17.90
2023-04-05T13:55:03.990Z,18.40
2023-04-05T13:57:31.035Z,18.30
2023-04-05T13:59:57.784Z,17.20
2023-04-05T14:02:26.121Z,17.50
2023-04-05T14:04:53.325Z,18.70
2023-04-05T14:07:23.782Z,18.40
2023-04-05T14:09:50.476Z,18.80
2023-04-05T14:12:17.749Z,19.30
2023-04-05T14:14:44.458Z,19.60
2023-04-05T14:17:12.680Z,20.20
2023-04-05T14:19:39.683Z,18.90
2023-04-05T14:22:06.393Z,17.10
2023-04-05T14:24:33.352Z,17.60
2023-04-05T14:27:01.181Z,18.50
2023-04-05T14:29:27.837Z,19.10
2023-04-05T14:31:54.726Z,20.30
2023-04-05T14:34:21.459Z,20.60
2023-04-05T14:36:48.191Z,20.70
2023-04-05T14:39:14.887Z,19.80
2023-04-05T14:41:41.571Z,20.20
2023-04-05T14:44:08.262Z,21.10
2023-04-05T14:49:02.230Z,20.40
2023-04-05T14:51:28.924Z,20.50
2023-04-05T14:53:56.046Z,19.20
2023-04-05T14:56:23.888Z,19.40
2023-04-05T14:58:50.748Z,17.90
2023-04-05T15:01:17.650Z,20.90
2023-04-05T15:06:11.971Z,19.40
2023-04-05T15:08:38.751Z,19.60
2023-04-05T15:11:05.685Z,19.20
2023-04-05T15:13:32.407Z,18.10
2023-04-05T15:15:59.079Z,19.20
2023-04-05T15:18:25.770Z,19.10
2023-04-05T15:20:53.432Z,18.90
2023-04-05T15:23:20.989Z,20.30
2023-04-05T15:25:47.678Z,19.80
2023-04-05T15:28:14.336Z,19.80
2023-04-05T15:30:41.011Z,18.90
2023-04-05T15:33:07.801Z,20.30
2023-04-05T15:35:36.360Z,19.90
2023-04-05T15:38:03.409Z,20.30
2023-04-05T15:40:30.384Z,19.70
2023-04-05T15:42:57.078Z,19.20
2023-04-05T15:45:23.764Z,18.60
2023-04-05T15:47:50.559Z,19.10
2023-04-05T15:50:17.269Z,18.60
2023-04-05T15:52:43.986Z,19.30
2023-04-05T15:55:10.746Z,18.40
2023-04-05T15:57:37.467Z,18.00
2023-04-05T16:00:04.850Z,19.10
2023-04-05T16:02:31.636Z,18.40
2023-04-05T16:04:58.334Z,18.30
2023-04-05T16:07:25.049Z,17.10
2023-04-05T16:09:51.740Z,17.30
2023-04-05T16:12:18.440Z,18.30
2023-04-05T16:14:45.148Z,19.10
2023-04-05T16:17:11.800Z,18.70
2023-04-05T16:19:38.535Z,18.30
2023-04-05T16:22:06.198Z,17.70
2023-04-05T16:24:33.362Z,15.30
2023-04-05T16:27:00.028Z,17.50
2023-04-05T16:29:27.261Z,17.80
2023-04-05T16:31:54.166Z,17.30
2023-04-05T16:34:20.882Z,14.80
2023-04-05T16:36:47.619Z,14.80
2023-04-05T16:39:14.348Z,13.40
2023-04-05T16:41:41.035Z,12.10
2023-04-05T16:44:07.723Z,12.20
2023-04-05T16:46:34.434Z,10.50
2023-04-05T16:49:01.460Z,10.00
2023-04-05T17:01:18.781Z,9.20
2023-04-05T17:03:48.691Z,9.10
2023-04-05T17:06:15.898Z,9.30
2023-04-05T17:08:42.577Z,9.30
2023-04-05T17:11:09.286Z,9.20
2023-04-05T17:13:35.989Z,10.10
2023-04-05T17:16:02.737Z,9.30
2023-04-05T17:18:29.450Z,9.80
2023-04-05T17:20:56.381Z,8.40
2023-04-05T17:23:23.816Z,8.20
2023-04-05T17:25:50.545Z,8.40
2023-04-05T17:28:17.213Z,8.40
2023-04-05T17:30:43.876Z,8.30
2023-04-05T17:33:10.663Z,8.20
2023-04-05T17:35:38.152Z,8.20
2023-04-05T17:38:04.924Z,8.00
2023-04-05T17:40:31.639Z,7.70
2023-04-05T17:45:25.349Z,7.70
2023-04-05T17:47:52.138Z,8.30
2023-04-05T17:50:18.825Z,7.10
2023-04-05T17:52:46.586Z,7.20
2023-04-05T17:55:13.293Z,7.10
2023-04-05T17:57:39.937Z,6.80
2023-04-05T18:02:37.106Z,6.90
2023-04-05T18:05:04.652Z,6.80
2023-04-05T18:07:31.335Z,7.00
2023-04-05T18:09:58.056Z,6.10
2023-04-05T18:14:51.764Z,6.20
2023-04-05T18:19:46.101Z,5.90
2023-04-05T18:22:12.827Z,5.70
2023-04-05T18:27:06.635Z,5.50
2023-04-05T18:32:05.064Z,5.30
2023-04-05T18:34:31.976Z,5.20
2023-04-05T18:36:58.782Z,5.10
2023-04-05T18:39:27.458Z,5.00
2023-04-05T18:41:55.088Z,4.80
2023-04-05T18:46:49.792Z,4.30
2023-04-05T18:49:18.342Z,4.30
2023-04-05T18:51:45.654Z,4.90
2023-04-05T18:54:13.877Z,5.00
2023-04-05T18:59:08.174Z,4.20
2023-04-05T19:01:35.222Z,4.10
2023-04-05T19:06:29.928Z,4.00
2023-04-05T19:08:56.566Z,3.90
2023-04-05T19:11:23.305Z,3.80
2023-04-05T19:13:50.707Z,3.90
2023-04-05T19:18:44.714Z,3.60
2023-04-05T19:21:11.435Z,3.00
2023-04-05T19:23:38.849Z,2.50
2023-04-05T19:26:05.775Z,2.20
2023-04-05T19:28:32.453Z,2.30
2023-04-05T19:30:59.105Z,2.50
2023-04-05T19:33:26.337Z,2.60
2023-04-05T19:35:53.085Z,2.40
2023-04-05T19:38:21.178Z,2.90
2023-04-05T19:40:47.839Z,2.70
2023-04-05T19:43:14.794Z,2.00
2023-04-05T19:45:41.838Z,2.30
2023-04-05T19:48:28.469Z,2.30
2023-04-05T19:51:04.230Z,2.10
2023-04-05T19:53:33.725Z,1.90
2023-04-05T19:56:00.382Z,2.40
2023-04-05T19:58:27.927Z,2.20
2023-04-05T20:00:55.493Z,2.10
2023-04-05T20:03:32.971Z,1.80
2023-04-05T20:06:09.797Z,2.30
2023-04-05T20:08:37.970Z,2.20
2023-04-05T20:11:05.548Z,2.00
2023-04-05T20:13:32.483Z,2.10
2023-04-05T20:15:59.676Z,1.90
2023-04-05T20:18:26.841Z,1.90
2023-04-05T20:20:54.256Z,1.80
2023-04-05T20:23:22.515Z,1.70
2023-04-05T20:25:52.465Z,1.70
2023-04-05T20:28:41.665Z,1.80
2023-04-05T20:31:29.158Z,1.50
2023-04-05T20:34:00.585Z,1.50
2023-04-05T20:36:32.115Z,1.40
2023-04-05T20:41:26.028Z,1.20
2023-04-05T20:43:52.772Z,1.20
2023-04-05T20:46:19.414Z,1.10
2023-04-05T20:48:46.964Z,1.20
2023-04-05T20:51:14.345Z,1.00
2023-04-05T20:53:41.192Z,1.00
2023-04-05T20:56:08.719Z,1.10
2023-04-05T20:58:36.113Z,1.10
2023-04-05T21:01:03.376Z,1.10
2023-04-05T21:03:31.876Z,1.00
2023-04-05T21:05:59.560Z,0.80
2023-04-05T21:08:26.648Z,1.30
2023-04-05T21:10:56.227Z,0.20
2023-04-05T21:13:28.115Z,0.90
2023-04-05T21:18:22.825Z,0.80
2023-04-05T21:20:52.608Z,0.50
2023-04-05T21:23:21.306Z,0.60
2023-04-05T21:25:48.437Z,0.60
2023-04-05T21:28:16.384Z,0.60
2023-04-05T21:30:43.312Z,0.40
2023-04-05T21:33:10.589Z,0.10
2023-04-05T21:35:37.370Z,0.00
2023-04-05T21:38:04.074Z,0.00
2023-04-05T21:40:31.123Z,0.30
2023-04-05T21:42:58.104Z,0.40
2023-04-05T21:45:25.015Z,0.40
2023-04-05T21:47:51.938Z,0.30
2023-04-05T21:50:18.695Z,0.10
2023-04-05T21:52:45.835Z,-0.20
2023-04-05T21:55:12.637Z,-0.60
2023-04-05T21:57:39.415Z,-0.40
2023-04-05T22:00:10.890Z,-0.30
2023-04-05T22:02:38.414Z,0.10
2023-04-05T22:05:05.695Z,-0.10
2023-04-05T22:07:32.669Z,-0.10
2023-04-05T22:09:59.653Z,0.00
2023-04-05T22:12:26.639Z,-0.10
2023-04-05T22:14:53.320Z,-0.20
2023-04-05T22:17:20.022Z,-0.50
2023-04-05T22:19:47.574Z,-0.50
2023-04-05T22:22:15.030Z,-0.50
2023-04-05T22:24:42.265Z,-0.60
2023-04-05T22:27:09.074Z,-0.50
2023-04-05T22:29:36.120Z,-0.40
2023-04-05T22:32:02.814Z,-0.40
2023-04-05T22:34:29.504Z,-1.10
2023-04-05T22:36:56.190Z,-0.40
2023-04-05T22:39:22.816Z,-0.80
2023-04-05T22:41:49.380Z,-0.70
2023-04-05T22:44:17.850Z,-0.70
2023-04-05T22:46:44.544Z,-0.30
2023-04-05T22:49:13.048Z,-0.40
2023-04-05T22:51:40.047Z,-0.50
2023-04-05T22:54:08.154Z,-0.40
2023-04-05T22:56:36.114Z,-0.40
2023-04-05T22:59:07.873Z,-0.70
2023-04-05T23:01:34.845Z,-0.60
2023-04-05T23:04:03.055Z,-0.70
2023-04-05T23:06:31.556Z,-0.60
2023-04-05T23:08:59.517Z,-0.60
2023-04-05T23:11:31.177Z,-0.90
2023-04-05T23:13:59.223Z,-0.40
2023-04-05T23:16:27.062Z,-0.80
2023-04-05T23:18:53.826Z,0.20
2023-04-05T23:21:20.476Z,-1.00
2023-04-05T23:23:48.177Z,-0.90
2023-04-05T23:26:14.945Z,-0.90
2023-04-05T23:28:44.742Z,-1.00
2023-04-05T23:31:13.732Z,-1.50
2023-04-05T23:33:40.368Z,-1.10
2023-04-05T23:36:09.199Z,-1.00
2023-04-05T23:38:37.688Z,-1.00
2023-04-05T23:41:05.841Z,-1.20
2023-04-05T23:43:35.681Z,-1.10
2023-04-05T23:48:31.123Z,-1.20
2023-04-05T23:51:02.847Z,-1.10
2023-04-05T23:53:29.697Z,-1.10
2023-04-05T23:55:56.962Z,-1.20
2023-04-05T23:58:24.792Z,-1.20
